Time;durP1;ratioP1;P1;durP2;ratioP2;P2;SDS_P1;SDS_P2;PMS_P1;PMS_P2;Temp;Humidity;BMP_temperature;BMP_pressure;BME280_temperature;BME280_humidity;BME280_pressure;Samples;Min_cycle;Max_cycle;Signal;HPM_P1;HPM_P2
2022/07/26 00:00:39;;;;;;;12.40;9.57;;;;;;;;;;4392196;32;20524;-64
2022/07/26 00:03:06;;;;;;;14.65;9.90;;;;;;;;;;4392621;32;20081;-65
2022/07/26 00:05:36;;;;;;;15.98;10.45;;;;;;;;;;4367470;32;20074;-65
2022/07/26 00:08:11;;;;;;;16.20;11.32;;;;;;;;;;4379992;32;20084;-64
2022/07/26 00:10:43;;;;;;;26.45;12.70;;;;;;;;;;4380498;32;20092;-64
2022/07/26 00:13:10;;;;;;;23.95;12.73;;;;;;;;;;4380306;32;20163;-65
2022/07/26 00:15:37;;;;;;;27.70;14.30;;;;;;;;;;4379715;32;20078;-64
2022/07/26 00:18:05;;;;;;;27.52;13.98;;;;;;;;;;4393914;32;20086;-64
2022/07/26 00:20:32;;;;;;;27.13;14.05;;;;;;;;;;4392009;32;20062;-64
2022/07/26 00:22:59;;;;;;;24.58;13.13;;;;;;;;;;4392103;32;20500;-65
2022/07/26 00:25:26;;;;;;;24.25;13.07;;;;;;;;;;4367659;32;20553;-64
2022/07/26 00:27:53;;;;;;;24.83;12.82;;;;;;;;;;4379776;32;20084;-64
2022/07/26 00:30:19;;;;;;;21.48;12.75;;;;;;;;;;4393274;32;20505;-65
2022/07/26 00:32:47;;;;;;;17.00;10.77;;;;;;;;;;4366801;32;20092;-65
2022/07/26 00:35:14;;;;;;;18.08;10.85;;;;;;;;;;4379666;32;20094;-65
2022/07/26 00:37:41;;;;;;;17.60;12.00;;;;;;;;;;4391962;32;20089;-64
2022/07/26 00:40:09;;;;;;;19.75;11.25;;;;;;;;;;4366520;32;20582;-65
2022/07/26 00:42:36;;;;;;;20.55;11.90;;;;;;;;;;4379589;32;20174;-65
2022/07/26 00:45:04;;;;;;;15.45;11.10;;;;;;;;;;4393300;32;20070;-63
2022/07/26 00:47:31;;;;;;;16.60;10.80;;;;;;;;;;4391222;32;20078;-64
2022/07/26 00:49:58;;;;;;;17.65;10.55;;;;;;;;;;4379078;32;20061;-64
2022/07/26 00:52:26;;;;;;;15.00;10.43;;;;;;;;;;4366686;32;20081;-64
2022/07/26 00:54:54;;;;;;;15.63;10.02;;;;;;;;;;4379273;32;20086;-64
2022/07/26 00:57:22;;;;;;;15.32;10.05;;;;;;;;;;4391910;32;20076;-63
2022/07/26 00:59:52;;;;;;;15.77;10.82;;;;;;;;;;4391588;32;20062;-64
2022/07/26 01:02:19;;;;;;;18.33;10.70;;;;;;;;;;4391453;32;20086;-65
2022/07/26 01:04:46;;;;;;;13.68;9.52;;;;;;;;;;4379012;32;20066;-65
2022/07/26 01:07:14;;;;;;;17.27;10.27;;;;;;;;;;4378655;32;20078;-64
2022/07/26 01:09:41;;;;;;;14.10;9.77;;;;;;;;;;4391596;32;20460;-64
2022/07/26 01:12:08;;;;;;;16.15;9.77;;;;;;;;;;4378851;32;20066;-64
2022/07/26 01:14:35;;;;;;;12.93;10.10;;;;;;;;;;4393001;32;20132;-64
2022/07/26 01:17:02;;;;;;;16.05;11.40;;;;;;;;;;4391250;32;20098;-64
2022/07/26 01:19:29;;;;;;;18.52;11.82;;;;;;;;;;4391808;32;20073;-65
2022/07/26 01:21:55;;;;;;;22.83;12.50;;;;;;;;;;4378862;32;20165;-64
2022/07/26 01:24:22;;;;;;;19.33;12.13;;;;;;;;;;4379337;32;20078;-65
2022/07/26 01:26:49;;;;;;;26.05;14.70;;;;;;;;;;4391078;32;20105;-64
2022/07/26 01:29:15;;;;;;;30.12;15.43;;;;;;;;;;4390998;32;20578;-65
2022/07/26 01:31:42;;;;;;;28.42;14.45;;;;;;;;;;4390904;32;20588;-65
2022/07/26 01:34:09;;;;;;;27.50;14.73;;;;;;;;;;4392138;32;20086;-64
2022/07/26 01:36:36;;;;;;;26.20;14.63;;;;;;;;;;4390808;32;20109;-64
2022/07/26 01:39:03;;;;;;;30.27;15.07;;;;;;;;;;4391203;32;20164;-64
2022/07/26 01:41:30;;;;;;;26.48;14.05;;;;;;;;;;4378446;32;20074;-65
2022/07/26 01:43:57;;;;;;;25.12;14.70;;;;;;;;;;4366324;32;20109;-64
2022/07/26 01:46:24;;;;;;;28.40;16.30;;;;;;;;;;4391227;32;20507;-64
2022/07/26 01:48:52;;;;;;;33.85;17.60;;;;;;;;;;4378947;32;20097;-65
2022/07/26 01:51:18;;;;;;;31.60;15.27;;;;;;;;;;4390722;32;20082;-65
2022/07/26 01:53:46;;;;;;;28.45;15.15;;;;;;;;;;4378480;32;20524;-64
2022/07/26 01:56:13;;;;;;;30.85;15.13;;;;;;;;;;4391179;32;20084;-65
2022/07/26 01:58:41;;;;;;;27.33;15.30;;;;;;;;;;4378469;32;20066;-64
2022/07/26 02:01:08;;;;;;;30.05;15.77;;;;;;;;;;4378507;32;20146;-64
2022/07/26 02:03:35;;;;;;;26.75;14.25;;;;;;;;;;4366250;32;20093;-64
2022/07/26 02:06:04;;;;;;;27.35;15.32;;;;;;;;;;4365527;32;20527;-65
2022/07/26 02:08:30;;;;;;;28.33;15.32;;;;;;;;;;4378394;32;20083;-65
2022/07/26 02:11:00;;;;;;;29.15;14.90;;;;;;;;;;4390477;32;20132;-63
2022/07/26 02:13:32;;;;;;;25.37;14.70;;;;;;;;;;4390314;32;20066;-64
2022/07/26 02:15:59;;;;;;;30.70;14.50;;;;;;;;;;4390567;32;20097;-66
2022/07/26 02:18:28;;;;;;;28.92;15.38;;;;;;;;;;4365356;32;20085;-65
2022/07/26 02:20:55;;;;;;;26.00;15.10;;;;;;;;;;4378035;32;20463;-65
2022/07/26 02:23:22;;;;;;;24.90;13.82;;;;;;;;;;4365293;32;20069;-65
2022/07/26 02:25:49;;;;;;;23.50;13.25;;;;;;;;;;4390169;32;20170;-67
2022/07/26 02:28:16;;;;;;;23.67;13.07;;;;;;;;;;4390391;32;20278;-64
2022/07/26 02:30:44;;;;;;;24.00;13.85;;;;;;;;;;4390953;32;20153;-64
2022/07/26 02:33:11;;;;;;;18.05;13.32;;;;;;;;;;4377423;32;20155;-64
2022/07/26 02:35:38;;;;;;;19.50;12.75;;;;;;;;;;4391822;32;20507;-64
2022/07/26 02:38:10;;;;;;;22.00;13.55;;;;;;;;;;4378044;32;20145;-64
2022/07/26 02:40:38;;;;;;;26.12;13.93;;;;;;;;;;4361884;32;20507;-64
2022/07/26 02:43:06;;;;;;;22.10;15.15;;;;;;;;;;4390498;32;20089;-64
2022/07/26 02:45:33;;;;;;;24.45;14.43;;;;;;;;;;4377480;32;20531;-65
2022/07/26 02:48:02;;;;;;;26.33;15.52;;;;;;;;;;4365009;32;20148;-65
2022/07/26 02:50:29;;;;;;;27.62;16.33;;;;;;;;;;4365273;32;20112;-64
2022/07/26 02:52:56;;;;;;;23.45;14.80;;;;;;;;;;4365012;32;20105;-64
2022/07/26 02:55:25;;;;;;;23.12;14.15;;;;;;;;;;4377411;32;20125;-64
2022/07/26 02:57:52;;;;;;;24.73;13.57;;;;;;;;;;4390118;32;20105;-65
2022/07/26 03:00:21;;;;;;;22.30;13.85;;;;;;;;;;4377368;32;20086;-64
2022/07/26 03:02:49;;;;;;;25.08;13.38;;;;;;;;;;4377434;32;20176;-63
2022/07/26 03:05:17;;;;;;;22.13;14.65;;;;;;;;;;4377390;32;20085;-65
2022/07/26 03:07:47;;;;;;;30.50;14.63;;;;;;;;;;4390094;32;20086;-65
2022/07/26 03:10:20;;;;;;;22.77;13.70;;;;;;;;;;4366092;32;20090;-64
2022/07/26 03:12:47;;;;;;;25.08;14.02;;;;;;;;;;4377421;32;20089;-65
2022/07/26 03:15:14;;;;;;;23.60;14.27;;;;;;;;;;4364941;32;20082;-64
2022/07/26 03:17:41;;;;;;;25.55;12.48;;;;;;;;;;4391508;32;20170;-65
2022/07/26 03:20:09;;;;;;;19.70;11.38;;;;;;;;;;4364724;32;20512;-65
2022/07/26 03:22:36;;;;;;;21.55;11.85;;;;;;;;;;4377506;32;20082;-64
2022/07/26 03:25:03;;;;;;;21.90;11.27;;;;;;;;;;4390413;32;20076;-64
2022/07/26 03:27:29;;;;;;;19.15;10.60;;;;;;;;;;4377073;32;20065;-64
2022/07/26 03:29:56;;;;;;;17.48;9.43;;;;;;;;;;4389840;32;20202;-65
2022/07/26 03:32:23;;;;;;;19.10;11.38;;;;;;;;;;4389361;32;20157;-64
2022/07/26 03:34:50;;;;;;;17.73;10.57;;;;;;;;;;4376986;32;20585;-65
2022/07/26 03:37:17;;;;;;;17.60;9.15;;;;;;;;;;4364740;32;20085;-64
2022/07/26 03:39:45;;;;;;;17.52;9.30;;;;;;;;;;4377975;32;20169;-64
2022/07/26 03:42:12;;;;;;;19.20;10.50;;;;;;;;;;4377461;32;20076;-64
2022/07/26 03:44:39;;;;;;;18.33;10.80;;;;;;;;;;4377158;32;20065;-65
2022/07/26 03:47:06;;;;;;;23.80;11.32;;;;;;;;;;4377948;32;20123;-65
2022/07/26 03:49:35;;;;;;;20.35;10.63;;;;;;;;;;4389684;32;20101;-64
2022/07/26 03:52:02;;;;;;;15.75;9.07;;;;;;;;;;4377318;32;20154;-64
2022/07/26 03:54:29;;;;;;;15.60;8.40;;;;;;;;;;4364483;32;20595;-65
2022/07/26 03:56:56;;;;;;;11.12;7.78;;;;;;;;;;4352165;32;20511;-67
2022/07/26 03:59:24;;;;;;;12.63;7.72;;;;;;;;;;4389698;32;20092;-65
2022/07/26 04:01:51;;;;;;;12.57;6.85;;;;;;;;;;4389533;32;20078;-65
2022/07/26 04:04:18;;;;;;;10.35;6.03;;;;;;;;;;4377711;32;20096;-64
2022/07/26 04:06:46;;;;;;;12.20;6.40;;;;;;;;;;4377032;32;20081;-64
2022/07/26 04:09:32;;;;;;;11.27;6.40;;;;;;;;;;4377534;32;20094;-65
2022/07/26 04:11:58;;;;;;;10.00;6.40;;;;;;;;;;4377431;32;20082;-64
2022/07/26 04:14:26;;;;;;;10.48;5.90;;;;;;;;;;4377220;32;20105;-65
2022/07/26 04:16:53;;;;;;;7.15;5.62;;;;;;;;;;4379477;32;20101;-65
2022/07/26 04:19:20;;;;;;;8.52;5.85;;;;;;;;;;4369521;32;20207;-65
2022/07/26 04:21:46;;;;;;;8.60;6.25;;;;;;;;;;4381508;32;20084;-64
2022/07/26 04:24:13;;;;;;;8.55;6.10;;;;;;;;;;4371089;32;20093;-65
2022/07/26 04:26:40;;;;;;;7.82;5.62;;;;;;;;;;4394295;32;20077;-64
2022/07/26 04:29:07;;;;;;;7.68;4.97;;;;;;;;;;4393893;32;20070;-64
2022/07/26 04:31:34;;;;;;;9.70;5.80;;;;;;;;;;4381086;32;20141;-64
2022/07/26 04:34:01;;;;;;;9.77;5.97;;;;;;;;;;4384117;32;20500;-64
2022/07/26 04:36:28;;;;;;;7.72;5.25;;;;;;;;;;4371506;32;20166;-65
2022/07/26 04:38:55;;;;;;;7.82;5.75;;;;;;;;;;4359684;32;20178;-67
2022/07/26 04:41:22;;;;;;;8.88;5.82;;;;;;;;;;4383558;32;20543;-65
2022/07/26 04:43:50;;;;;;;10.73;5.90;;;;;;;;;;4368401;32;20086;-63
2022/07/26 04:46:18;;;;;;;9.40;6.50;;;;;;;;;;4379826;32;20075;-64
2022/07/26 04:48:44;;;;;;;11.50;6.20;;;;;;;;;;4379508;32;20076;-64
2022/07/26 04:51:11;;;;;;;11.68;6.55;;;;;;;;;;4393045;32;20156;-64
2022/07/26 04:53:38;;;;;;;9.63;6.47;;;;;;;;;;4391849;32;20522;-64
2022/07/26 04:56:05;;;;;;;10.55;7.93;;;;;;;;;;4391536;32;20082;-63
2022/07/26 04:58:32;;;;;;;15.57;8.80;;;;;;;;;;4379190;32;20174;-65
2022/07/26 05:00:59;;;;;;;12.93;8.70;;;;;;;;;;4391771;32;20154;-64
2022/07/26 05:03:26;;;;;;;17.52;9.95;;;;;;;;;;4378990;32;20467;-64
2022/07/26 05:05:53;;;;;;;15.20;9.70;;;;;;;;;;4366650;32;20508;-65
2022/07/26 05:08:20;;;;;;;17.62;10.98;;;;;;;;;;4379148;32;20086;-65
2022/07/26 05:10:47;;;;;;;19.55;11.23;;;;;;;;;;4391997;32;20061;-64
2022/07/26 05:13:14;;;;;;;18.98;10.90;;;;;;;;;;4379053;32;20452;-65
2022/07/26 05:15:41;;;;;;;18.15;10.80;;;;;;;;;;4366397;32;20521;-65
2022/07/26 05:18:09;;;;;;;18.15;10.70;;;;;;;;;;4366590;32;20070;-64
2022/07/26 05:20:36;;;;;;;21.17;12.20;;;;;;;;;;4391139;32;20077;-64
2022/07/26 05:23:03;;;;;;;20.45;12.43;;;;;;;;;;4378583;32;20066;-65
2022/07/26 05:25:30;;;;;;;21.55;12.40;;;;;;;;;;4367037;32;20104;-64
2022/07/26 05:27:57;;;;;;;25.17;12.68;;;;;;;;;;4366287;32;20089;-64
2022/07/26 05:37:17;;;;;;;24.80;14.43;;;;;;;;;;4391056;32;20072;-65
2022/07/26 05:39:44;;;;;;;21.58;13.98;;;;;;;;;;4392361;32;20169;-65
2022/07/26 05:42:10;;;;;;;22.42;14.87;;;;;;;;;;4392200;32;20141;-64
2022/07/26 05:44:37;;;;;;;28.25;16.60;;;;;;;;;;4378763;32;20139;-65
2022/07/26 05:47:06;;;;;;;27.45;17.95;;;;;;;;;;4378202;32;20074;-65
2022/07/26 05:49:33;;;;;;;23.95;16.40;;;;;;;;;;4378422;32;20078;-65
2022/07/26 05:52:01;;;;;;;28.65;18.55;;;;;;;;;;4378833;32;20517;-65
2022/07/26 05:54:27;;;;;;;28.17;17.10;;;;;;;;;;4378300;32;20085;-66
2022/07/26 05:56:54;;;;;;;25.23;16.20;;;;;;;;;;4390663;32;20073;-63
2022/07/26 05:59:21;;;;;;;25.98;15.85;;;;;;;;;;4391814;32;20077;-65
2022/07/26 06:01:49;;;;;;;29.70;17.98;;;;;;;;;;4365617;32;20069;-65
2022/07/26 06:04:16;;;;;;;24.37;16.00;;;;;;;;;;4378290;32;20146;-66
2022/07/26 06:06:42;;;;;;;27.27;17.83;;;;;;;;;;4390581;32;20163;-65
2022/07/26 06:09:09;;;;;;;28.70;18.33;;;;;;;;;;4366228;32;20107;-65
2022/07/26 06:11:37;;;;;;;17.67;13.52;;;;;;;;;;4365539;32;20497;-64
2022/07/26 06:14:04;;;;;;;18.60;12.82;;;;;;;;;;4365523;32;20073;-64
2022/07/26 06:16:31;;;;;;;16.05;12.10;;;;;;;;;;4377911;32;20229;-65
2022/07/26 06:18:57;;;;;;;15.32;11.80;;;;;;;;;;4378439;32;20081;-65
2022/07/26 06:21:24;;;;;;;16.12;11.05;;;;;;;;;;4390140;32;20070;-66
2022/07/26 06:23:51;;;;;;;13.30;8.95;;;;;;;;;;4391761;32;20062;-66
2022/07/26 06:26:19;;;;;;;12.00;9.65;;;;;;;;;;4377701;32;20077;-66
2022/07/26 06:28:45;;;;;;;15.07;10.68;;;;;;;;;;4377617;32;20141;-64
2022/07/26 06:31:12;;;;;;;13.60;11.02;;;;;;;;;;4391768;32;20104;-65
2022/07/26 06:33:39;;;;;;;12.32;9.27;;;;;;;;;;4377478;32;20092;-65
2022/07/26 06:36:06;;;;;;;10.15;8.50;;;;;;;;;;4390339;32;20513;-65
2022/07/26 06:38:33;;;;;;;12.30;8.68;;;;;;;;;;4365283;32;20089;-65
2022/07/26 06:40:59;;;;;;;11.75;9.68;;;;;;;;;;4391674;32;20077;-64
2022/07/26 06:43:26;;;;;;;11.50;8.30;;;;;;;;;;4377799;32;20154;-65
2022/07/26 06:45:53;;;;;;;12.77;9.48;;;;;;;;;;4377317;32;20077;-65
2022/07/26 06:48:20;;;;;;;11.15;9.25;;;;;;;;;;4365169;32;20158;-66
2022/07/26 06:50:47;;;;;;;12.50;10.48;;;;;;;;;;4377532;32;20082;-65
2022/07/26 06:53:14;;;;;;;13.50;10.55;;;;;;;;;;4391326;32;20081;-65
2022/07/26 06:55:41;;;;;;;12.18;10.13;;;;;;;;;;4377560;32;20153;-65
2022/07/26 06:58:07;;;;;;;11.38;10.15;;;;;;;;;;4377607;32;20607;-65
2022/07/26 07:00:34;;;;;;;12.55;9.73;;;;;;;;;;4390180;32;20093;-65
2022/07/26 07:03:01;;;;;;;11.52;9.40;;;;;;;;;;4389905;32;20168;-67
2022/07/26 07:05:28;;;;;;;10.52;8.68;;;;;;;;;;4391805;32;20078;-65
2022/07/26 07:07:55;;;;;;;10.50;8.25;;;;;;;;;;4391415;32;20506;-65
2022/07/26 07:10:21;;;;;;;11.10;8.82;;;;;;;;;;4391376;32;20074;-65
2022/07/26 07:12:48;;;;;;;9.35;7.85;;;;;;;;;;4389962;32;20073;-65
2022/07/26 07:15:15;;;;;;;8.52;7.22;;;;;;;;;;4389876;32;20103;-65
2022/07/26 07:17:41;;;;;;;9.85;7.65;;;;;;;;;;4389560;32;20153;-66
2022/07/26 07:20:09;;;;;;;9.07;7.20;;;;;;;;;;4376805;32;20093;-65
2022/07/26 07:22:36;;;;;;;9.48;7.50;;;;;;;;;;4377160;32;20089;-65
2022/07/26 07:25:03;;;;;;;8.68;6.57;;;;;;;;;;4390352;32;20086;-65
2022/07/26 07:27:33;;;;;;;10.05;6.43;;;;;;;;;;4364890;32;20088;-65
2022/07/26 07:30:00;;;;;;;7.43;5.85;;;;;;;;;;4376922;32;20149;-66
2022/07/26 07:32:26;;;;;;;8.00;6.53;;;;;;;;;;4389409;32;20078;-65
2022/07/26 07:34:53;;;;;;;7.75;6.32;;;;;;;;;;4376860;32;20068;-65
2022/07/26 07:37:20;;;;;;;7.62;6.43;;;;;;;;;;4390005;32;20085;-66
2022/07/26 07:39:47;;;;;;;10.07;6.62;;;;;;;;;;4377191;32;20081;-65
2022/07/26 07:42:14;;;;;;;8.60;5.70;;;;;;;;;;4389491;32;20571;-65
2022/07/26 07:44:41;;;;;;;6.43;5.57;;;;;;;;;;4389488;32;20159;-66
2022/07/26 07:47:08;;;;;;;6.55;5.40;;;;;;;;;;4389613;32;20558;-66
2022/07/26 07:49:35;;;;;;;8.77;5.53;;;;;;;;;;4376968;32;20073;-65
2022/07/26 07:52:02;;;;;;;7.25;5.95;;;;;;;;;;4389559;32;20069;-65
2022/07/26 07:54:28;;;;;;;6.32;5.70;;;;;;;;;;4376878;32;20098;-66
2022/07/26 07:56:55;;;;;;;6.22;5.28;;;;;;;;;;4377802;32;20541;-65
2022/07/26 07:59:23;;;;;;;7.32;5.18;;;;;;;;;;4380177;32;20097;-66
2022/07/26 08:01:50;;;;;;;6.20;5.10;;;;;;;;;;4367270;32;20090;-66
2022/07/26 08:04:18;;;;;;;5.75;5.03;;;;;;;;;;4380051;32;20081;-66
2022/07/26 08:06:45;;;;;;;6.55;5.10;;;;;;;;;;4367848;32;20081;-65
2022/07/26 08:09:15;;;;;;;8.10;5.20;;;;;;;;;;4393702;32;20591;-65
2022/07/26 08:11:42;;;;;;;6.87;4.82;;;;;;;;;;4379494;32;20165;-66
2022/07/26 08:14:09;;;;;;;6.75;4.70;;;;;;;;;;4392404;32;20695;-65
2022/07/26 08:16:36;;;;;;;6.18;5.07;;;;;;;;;;4392866;32;20081;-66
2022/07/26 08:19:02;;;;;;;6.53;4.97;;;;;;;;;;4392279;32;20096;-65
2022/07/26 08:21:29;;;;;;;5.70;4.93;;;;;;;;;;4392333;32;20108;-65
2022/07/26 08:23:57;;;;;;;8.93;4.70;;;;;;;;;;4392024;32;20154;-65
2022/07/26 08:26:25;;;;;;;5.30;4.62;;;;;;;;;;4392010;32;20082;-65
2022/07/26 08:28:51;;;;;;;5.60;4.40;;;;;;;;;;4379868;32;20069;-65
2022/07/26 08:31:21;;;;;;;5.18;4.65;;;;;;;;;;4380164;32;20157;-63
2022/07/26 08:33:48;;;;;;;7.20;4.47;;;;;;;;;;4379441;32;20118;-66
2022/07/26 08:36:16;;;;;;;6.03;4.87;;;;;;;;;;4379304;32;20479;-66
2022/07/26 08:38:43;;;;;;;5.18;4.47;;;;;;;;;;4379258;32;20155;-66
2022/07/26 08:41:10;;;;;;;6.12;4.82;;;;;;;;;;4379216;32;20161;-65
2022/07/26 08:43:37;;;;;;;5.55;4.60;;;;;;;;;;4366476;32;20597;-65
2022/07/26 08:46:03;;;;;;;8.70;5.35;;;;;;;;;;4391762;32;20089;-66
2022/07/26 08:48:31;;;;;;;5.70;4.78;;;;;;;;;;4379152;32;20077;-66
2022/07/26 08:50:58;;;;;;;7.50;4.70;;;;;;;;;;4366643;32;20116;-65
2022/07/26 08:53:25;;;;;;;5.57;4.50;;;;;;;;;;4379447;32;20082;-65
2022/07/26 08:55:56;;;;;;;5.20;4.60;;;;;;;;;;4391770;32;20132;-66
2022/07/26 08:58:25;;;;;;;5.30;4.30;;;;;;;;;;4379558;32;20073;-66
2022/07/26 09:01:12;;;;;;;7.93;4.35;;;;;;;;;;4391217;32;20081;-66
2022/07/26 09:03:40;;;;;;;5.32;4.60;;;;;;;;;;4379327;32;20146;-66
2022/07/26 09:06:21;;;;;;;6.90;4.12;;;;;;;;;;4378730;32;20176;-65
2022/07/26 09:08:50;;;;;;;5.57;4.47;;;;;;;;;;4365222;32;20619;-65
2022/07/26 09:11:27;;;;;;;6.65;5.12;;;;;;;;;;4366557;32;20114;-66
2022/07/26 09:14:02;;;;;;;6.50;4.93;;;;;;;;;;4391131;32;20150;-66
2022/07/26 09:16:29;;;;;;;6.12;4.60;;;;;;;;;;4366293;32;20139;-66
2022/07/26 09:19:17;;;;;;;5.32;4.50;;;;;;;;;;4366234;32;20073;-66
2022/07/26 09:21:48;;;;;;;5.05;4.40;;;;;;;;;;4391310;32;20161;-66
2022/07/26 09:24:33;;;;;;;6.82;4.75;;;;;;;;;;4378918;32;20074;-66
2022/07/26 09:27:01;;;;;;;8.83;6.77;;;;;;;;;;4390918;32;20147;-66
2022/07/26 09:29:28;;;;;;;12.77;8.82;;;;;;;;;;4378689;32;20089;-66
2022/07/26 09:32:12;;;;;;;14.38;11.25;;;;;;;;;;4366005;32;20081;-66
2022/07/26 09:34:39;;;;;;;15.65;10.32;;;;;;;;;;4378310;32;20150;-66
2022/07/26 09:37:06;;;;;;;13.02;10.48;;;;;;;;;;4391089;32;20073;-67
2022/07/26 09:39:33;;;;;;;14.23;10.70;;;;;;;;;;4390948;32;20153;-66
2022/07/26 09:42:07;;;;;;;13.98;10.15;;;;;;;;;;4365907;32;20519;-65
2022/07/26 09:44:41;;;;;;;13.88;10.98;;;;;;;;;;4378879;32;20085;-65
2022/07/26 09:47:08;;;;;;;17.50;11.10;;;;;;;;;;4390772;32;20086;-66
2022/07/26 09:49:35;;;;;;;20.00;13.35;;;;;;;;;;4365593;32;20508;-67
2022/07/26 09:52:01;;;;;;;18.33;12.18;;;;;;;;;;4378311;32;20107;-65
2022/07/26 09:54:34;;;;;;;17.73;12.90;;;;;;;;;;4392143;32;20445;-66
2022/07/26 09:57:01;;;;;;;16.08;13.05;;;;;;;;;;4390660;32;20085;-66
2022/07/26 09:59:29;;;;;;;19.45;13.55;;;;;;;;;;4390373;32;20476;-66
2022/07/26 10:01:57;;;;;;;16.45;11.85;;;;;;;;;;4378628;32;20076;-66
2022/07/26 10:04:25;;;;;;;14.63;11.10;;;;;;;;;;4390695;32;20154;-66
2022/07/26 10:06:52;;;;;;;15.35;12.07;;;;;;;;;;4365652;32;20074;-65
2022/07/26 10:09:18;;;;;;;14.90;10.90;;;;;;;;;;4390533;32;20176;-66
2022/07/26 10:12:07;;;;;;;15.82;11.45;;;;;;;;;;4391302;32;20215;-66
2022/07/26 10:14:50;;;;;;;14.87;10.63;;;;;;;;;;4390318;32;20105;-67
2022/07/26 10:17:29;;;;;;;15.50;12.43;;;;;;;;;;4390534;32;20161;-66
2022/07/26 10:19:57;;;;;;;14.52;10.80;;;;;;;;;;4377591;32;20066;-66
2022/07/26 10:22:53;;;;;;;11.75;8.90;;;;;;;;;;4377686;32;20142;-66
2022/07/26 10:25:19;;;;;;;12.97;9.00;;;;;;;;;;4380923;32;20543;-66
2022/07/26 10:27:51;;;;;;;12.23;8.98;;;;;;;;;;4378330;32;20078;-65
2022/07/26 10:30:18;;;;;;;11.55;9.15;;;;;;;;;;4365263;32;20085;-65
2022/07/26 10:32:51;;;;;;;9.88;8.38;;;;;;;;;;4377960;32;20157;-65
2022/07/26 10:35:40;;;;;;;9.10;7.40;;;;;;;;;;4377396;32;20085;-65
2022/07/26 10:38:10;;;;;;;9.60;7.68;;;;;;;;;;4378527;32;20227;-66
2022/07/26 10:40:38;;;;;;;9.20;7.60;;;;;;;;;;4377624;32;20093;-65
2022/07/26 10:43:16;;;;;;;9.20;7.50;;;;;;;;;;4378047;32;20175;-66
2022/07/26 10:45:45;;;;;;;9.25;8.15;;;;;;;;;;4365269;32;20093;-66
2022/07/26 10:48:18;;;;;;;10.13;7.18;;;;;;;;;;4363004;32;20081;-66
2022/07/26 10:50:46;;;;;;;11.43;9.18;;;;;;;;;;4365366;32;20073;-66
2022/07/26 10:53:25;;;;;;;11.52;8.25;;;;;;;;;;4389970;32;20078;-65
2022/07/26 10:56:00;;;;;;;11.63;7.72;;;;;;;;;;4377646;32;20140;-65
2022/07/26 10:58:27;;;;;;;9.85;7.65;;;;;;;;;;4390032;32;20084;-66
2022/07/26 11:01:07;;;;;;;9.00;6.95;;;;;;;;;;4377519;32;20100;-65
2022/07/26 11:03:41;;;;;;;16.73;9.65;;;;;;;;;;4364734;32;20082;-65
2022/07/26 11:06:18;;;;;;;40.53;12.63;;;;;;;;;;4364693;32;20523;-66
2022/07/26 11:08:47;;;;;;;10.57;8.00;;;;;;;;;;4365498;32;20109;-66
2022/07/26 11:11:20;;;;;;;10.98;7.45;;;;;;;;;;4377758;32;20161;-65
2022/07/26 11:13:47;;;;;;;9.32;7.22;;;;;;;;;;4377594;32;20092;-66
2022/07/26 11:16:15;;;;;;;10.82;7.65;;;;;;;;;;4377642;32;20088;-66
2022/07/26 11:18:41;;;;;;;9.85;7.37;;;;;;;;;;4389744;32;20074;-65
2022/07/26 11:21:10;;;;;;;9.80;7.97;;;;;;;;;;4390113;32;20074;-66
2022/07/26 11:23:39;;;;;;;9.43;7.22;;;;;;;;;;4376748;32;20449;-65
2022/07/26 11:26:14;;;;;;;10.77;7.62;;;;;;;;;;4377599;32;20097;-65
2022/07/26 11:28:56;;;;;;;8.68;6.90;;;;;;;;;;4377394;32;20054;-65
2022/07/26 11:31:39;;;;;;;8.35;6.32;;;;;;;;;;4377330;32;20085;-65
2022/07/26 11:34:07;;;;;;;7.75;6.95;;;;;;;;;;4367439;32;20485;-66
2022/07/26 11:36:43;;;;;;;8.60;7.00;;;;;;;;;;4392747;32;20076;-65
2022/07/26 11:39:14;;;;;;;8.63;6.18;;;;;;;;;;4392563;32;20091;-65
2022/07/26 11:41:42;;;;;;;5.97;5.37;;;;;;;;;;4392549;32;20092;-66
2022/07/26 11:44:20;;;;;;;6.18;5.15;;;;;;;;;;4365028;32;20083;-66
2022/07/26 11:46:47;;;;;;;9.68;5.70;;;;;;;;;;4377686;32;20153;-67
2022/07/26 11:49:16;;;;;;;7.57;6.20;;;;;;;;;;4352551;32;20073;-65
2022/07/26 11:51:57;;;;;;;7.97;6.53;;;;;;;;;;4387207;32;20081;-64
2022/07/26 11:54:29;;;;;;;8.00;6.32;;;;;;;;;;4355347;32;20081;-67
2022/07/26 11:57:04;;;;;;;6.60;5.90;;;;;;;;;;4380626;32;20090;-64
2022/07/26 11:59:36;;;;;;;6.20;5.60;;;;;;;;;;4368380;32;20097;-67
2022/07/26 12:02:06;;;;;;;6.18;5.37;;;;;;;;;;4352690;32;20154;-64
2022/07/26 12:04:41;;;;;;;6.57;5.40;;;;;;;;;;4363982;32;20578;-65
2022/07/26 12:07:21;;;;;;;9.13;5.35;;;;;;;;;;4366291;32;20097;-64
2022/07/26 12:09:52;;;;;;;5.85;4.85;;;;;;;;;;4378134;32;20114;-64
2022/07/26 12:12:26;;;;;;;7.55;5.40;;;;;;;;;;4378141;32;20067;-63
2022/07/26 12:15:01;;;;;;;7.15;5.82;;;;;;;;;;4377613;32;20063;-64
2022/07/26 12:17:28;;;;;;;6.37;5.18;;;;;;;;;;4364911;32;20081;-64
2022/07/26 12:19:57;;;;;;;6.70;5.07;;;;;;;;;;4377035;32;20152;-65
2022/07/26 12:22:24;;;;;;;8.50;5.47;;;;;;;;;;4364855;32;20158;-65
2022/07/26 12:24:50;;;;;;;7.75;5.28;;;;;;;;;;4365298;32;20518;-64
2022/07/26 12:27:22;;;;;;;7.05;5.40;;;;;;;;;;4378438;32;20086;-65
2022/07/26 12:29:53;;;;;;;6.28;5.25;;;;;;;;;;4376833;32;20097;-65
2022/07/26 12:32:23;;;;;;;6.12;5.35;;;;;;;;;;4364455;32;20090;-68
2022/07/26 12:35:01;;;;;;;7.47;5.37;;;;;;;;;;4364374;32;20066;-67
2022/07/26 12:37:30;;;;;;;6.65;5.45;;;;;;;;;;4364759;32;20167;-69
2022/07/26 12:40:29;;;;;;;7.20;5.30;;;;;;;;;;4376851;32;20073;-69
2022/07/26 12:43:02;;;;;;;6.85;5.57;;;;;;;;;;4383771;32;20135;-70
2022/07/26 12:45:31;;;;;;;6.32;5.40;;;;;;;;;;4377485;32;20587;-69
2022/07/26 12:48:00;;;;;;;6.40;5.43;;;;;;;;;;4370125;32;20577;-70
2022/07/26 12:50:28;;;;;;;7.18;5.57;;;;;;;;;;4355701;32;20089;-74
2022/07/26 12:53:03;;;;;;;10.93;5.57;;;;;;;;;;4390697;32;20090;-69
2022/07/26 12:55:30;;;;;;;8.68;5.93;;;;;;;;;;4391493;32;20066;-69
2022/07/26 12:57:58;;;;;;;6.28;5.35;;;;;;;;;;4363667;32;20113;-67
2022/07/26 13:00:25;;;;;;;8.50;5.55;;;;;;;;;;4363436;32;20067;-67
2022/07/26 13:02:54;;;;;;;7.80;5.82;;;;;;;;;;4351726;32;20075;-67
2022/07/26 13:05:21;;;;;;;8.75;5.43;;;;;;;;;;4368749;32;20126;-69
2022/07/26 13:07:50;;;;;;;7.55;5.80;;;;;;;;;;4383783;32;20236;-68
2022/07/26 13:10:17;;;;;;;7.53;6.00;;;;;;;;;;4377940;32;20097;-68
2022/07/26 13:12:44;;;;;;;7.50;5.97;;;;;;;;;;4359865;32;20174;-68
2022/07/26 13:15:11;;;;;;;6.62;5.87;;;;;;;;;;4377502;32;20168;-70
2022/07/26 13:17:38;;;;;;;7.68;6.40;;;;;;;;;;4378006;32;20240;-65
2022/07/26 13:20:05;;;;;;;7.18;5.93;;;;;;;;;;4390350;32;20078;-65
2022/07/26 13:22:32;;;;;;;7.05;5.78;;;;;;;;;;4377327;32;20463;-65
2022/07/26 13:24:59;;;;;;;6.82;5.60;;;;;;;;;;4375435;32;20175;-64
2022/07/26 13:27:26;;;;;;;7.05;5.68;;;;;;;;;;4363516;32;20197;-64
2022/07/26 13:29:53;;;;;;;6.90;5.93;;;;;;;;;;4373513;32;20090;-64
2022/07/26 13:32:20;;;;;;;7.85;5.93;;;;;;;;;;4377466;32;20104;-63
2022/07/26 13:34:48;;;;;;;8.23;5.18;;;;;;;;;;4363797;32;20085;-66
2022/07/26 13:37:14;;;;;;;7.60;5.95;;;;;;;;;;4378444;32;20074;-66
2022/07/26 13:39:42;;;;;;;8.18;5.72;;;;;;;;;;4377800;32;20095;-68
2022/07/26 13:42:10;;;;;;;7.40;5.85;;;;;;;;;;4354392;32;20197;-63
2022/07/26 13:44:36;;;;;;;8.10;5.65;;;;;;;;;;4377131;32;20073;-64
2022/07/26 13:47:04;;;;;;;7.35;5.72;;;;;;;;;;4377496;32;20074;-66
2022/07/26 13:49:30;;;;;;;6.68;5.78;;;;;;;;;;4376787;32;20065;-65
2022/07/26 13:51:57;;;;;;;6.60;5.22;;;;;;;;;;4380500;32;20082;-66
2022/07/26 13:54:32;;;;;;;6.03;5.43;;;;;;;;;;4389495;32;20076;-68
2022/07/26 13:57:00;;;;;;;5.43;4.75;;;;;;;;;;4385339;32;20528;-67
2022/07/26 13:59:27;;;;;;;6.95;4.95;;;;;;;;;;4368011;32;20531;-68
2022/07/26 14:01:54;;;;;;;6.75;5.05;;;;;;;;;;4352998;32;20247;-65
2022/07/26 14:04:22;;;;;;;6.15;5.00;;;;;;;;;;4375014;32;20520;-66
2022/07/26 14:06:49;;;;;;;5.90;4.78;;;;;;;;;;4375454;32;20062;-66
2022/07/26 14:09:17;;;;;;;6.37;4.93;;;;;;;;;;4354692;32;20160;-64
2022/07/26 14:11:44;;;;;;;6.10;5.00;;;;;;;;;;4388658;32;20117;-64
2022/07/26 14:14:13;;;;;;;7.15;5.07;;;;;;;;;;4375858;32;20065;-69
2022/07/26 14:16:40;;;;;;;6.97;4.95;;;;;;;;;;4378444;32;20104;-68
2022/07/26 14:19:07;;;;;;;6.47;4.80;;;;;;;;;;4370135;32;20094;-69
2022/07/26 14:21:34;;;;;;;6.05;4.72;;;;;;;;;;4382205;32;20065;-71
2022/07/26 14:24:01;;;;;;;7.43;5.03;;;;;;;;;;4376073;32;20094;-69
2022/07/26 14:26:28;;;;;;;8.43;4.85;;;;;;;;;;4379473;32;20073;-69
2022/07/26 14:28:55;;;;;;;8.63;6.05;;;;;;;;;;4377356;32;20068;-64
2022/07/26 14:31:22;;;;;;;6.87;5.40;;;;;;;;;;4365762;32;20070;-65
2022/07/26 14:33:52;;;;;;;6.47;5.20;;;;;;;;;;4351923;32;20073;-65
2022/07/26 14:36:19;;;;;;;8.32;5.35;;;;;;;;;;4379346;32;20093;-66
2022/07/26 14:38:48;;;;;;;6.97;5.40;;;;;;;;;;4374801;32;20098;-66
2022/07/26 14:41:15;;;;;;;8.32;5.75;;;;;;;;;;4366395;32;20081;-64
2022/07/26 14:43:44;;;;;;;11.95;6.55;;;;;;;;;;4385515;32;20062;-68
2022/07/26 14:46:10;;;;;;;8.75;6.60;;;;;;;;;;4384716;32;20068;-69